sensor_id;sensor_type;location;lat;lon;timestamp;P1;durP1;ratioP1;P2;durP2;ratioP2
5199;SDS011;2619;47.868;11.892;2023-06-22T00:02:15;15.90;;;10.53;;
5199;SDS011;2619;47.868;11.892;2023-06-22T00:04:42;20.47;;;12.80;;
5199;SDS011;2619;47.868;11.892;2023-06-22T00:07:07;15.27;;;11.60;;
5199;SDS011;2619;47.868;11.892;2023-06-22T00:09:33;14.57;;;11.80;;
5199;SDS011;2619;47.868;11.892;2023-06-22T00:11:59;20.77;;;13.40;;
5199;SDS011;2619;47.868;11.892;2023-06-22T00:14:25;17.40;;;12.13;;
5199;SDS011;2619;47.868;11.892;2023-06-22T00:16:50;17.07;;;11.90;;
5199;SDS011;2619;47.868;11.892;2023-06-22T00:19:20;16.90;;;12.67;;
5199;SDS011;2619;47.868;11.892;2023-06-22T00:21:48;15.40;;;11.93;;
5199;SDS011;2619;47.868;11.892;2023-06-22T00:24:21;22.17;;;12.80;;
5199;SDS011;2619;47.868;11.892;2023-06-22T00:26:50;19.10;;;12.13;;
5199;SDS011;2619;47.868;11.892;2023-06-22T00:29:16;21.50;;;12.20;;
5199;SDS011;2619;47.868;11.892;2023-06-22T00:31:41;18.97;;;13.17;;
5199;SDS011;2619;47.868;11.892;2023-06-22T00:34:07;22.33;;;13.30;;
5199;SDS011;2619;47.868;11.892;2023-06-22T00:36:34;14.90;;;11.53;;
5199;SDS011;2619;47.868;11.892;2023-06-22T00:39:00;14.33;;;12.13;;
5199;SDS011;2619;47.868;11.892;2023-06-22T00:41:25;15.20;;;12.07;;
5199;SDS011;2619;47.868;11.892;2023-06-22T00:43:53;20.60;;;13.97;;
5199;SDS011;2619;47.868;11.892;2023-06-22T00:46:19;16.80;;;13.23;;
5199;SDS011;2619;47.868;11.892;2023-06-22T00:48:45;19.80;;;14.53;;
5199;SDS011;2619;47.868;11.892;2023-06-22T00:51:11;17.60;;;13.00;;
5199;SDS011;2619;47.868;11.892;2023-06-22T00:53:37;17.93;;;11.03;;
5199;SDS011;2619;47.868;11.892;2023-06-22T00:56:02;19.90;;;12.80;;
5199;SDS011;2619;47.868;11.892;2023-06-22T00:58:30;17.50;;;12.43;;
5199;SDS011;2619;47.868;11.892;2023-06-22T01:00:56;18.40;;;10.80;;
5199;SDS011;2619;47.868;11.892;2023-06-22T01:03:22;15.77;;;11.73;;
5199;SDS011;2619;47.868;11.892;2023-06-22T01:05:47;16.83;;;11.57;;
5199;SDS011;2619;47.868;11.892;2023-06-22T01:08:23;16.33;;;11.80;;
5199;SDS011;2619;47.868;11.892;2023-06-22T01:11:20;18.20;;;11.13;;
5199;SDS011;2619;47.868;11.892;2023-06-22T01:16:29;15.80;;;10.77;;
5199;SDS011;2619;47.868;11.892;2023-06-22T01:18:57;16.70;;;11.63;;
5199;SDS011;2619;47.868;11.892;2023-06-22T01:21:28;15.87;;;10.50;;
5199;SDS011;2619;47.868;11.892;2023-06-22T01:29:07;15.10;;;11.20;;
5199;SDS011;2619;47.868;11.892;2023-06-22T01:31:37;13.10;;;11.00;;
5199;SDS011;2619;47.868;11.892;2023-06-22T01:34:06;14.57;;;11.77;;
5199;SDS011;2619;47.868;11.892;2023-06-22T01:36:33;15.43;;;11.60;;
5199;SDS011;2619;47.868;11.892;2023-06-22T01:38:59;16.17;;;11.20;;
5199;SDS011;2619;47.868;11.892;2023-06-22T01:41:26;17.93;;;12.37;;
5199;SDS011;2619;47.868;11.892;2023-06-22T01:43:52;18.30;;;12.57;;
5199;SDS011;2619;47.868;11.892;2023-06-22T01:46:19;17.33;;;11.97;;
5199;SDS011;2619;47.868;11.892;2023-06-22T01:48:46;16.63;;;10.80;;
5199;SDS011;2619;47.868;11.892;2023-06-22T01:51:12;17.50;;;11.73;;
5199;SDS011;2619;47.868;11.892;2023-06-22T01:53:38;17.20;;;12.07;;
5199;SDS011;2619;47.868;11.892;2023-06-22T01:56:04;17.73;;;12.80;;
5199;SDS011;2619;47.868;11.892;2023-06-22T01:58:30;18.53;;;11.83;;
5199;SDS011;2619;47.868;11.892;2023-06-22T02:01:09;17.67;;;12.17;;
5199;SDS011;2619;47.868;11.892;2023-06-22T02:03:37;21.00;;;14.00;;
5199;SDS011;2619;47.868;11.892;2023-06-22T02:06:29;21.60;;;13.00;;
5199;SDS011;2619;47.868;11.892;2023-06-22T02:09:02;20.53;;;13.40;;
5199;SDS011;2619;47.868;11.892;2023-06-22T02:11:32;21.07;;;13.27;;
5199;SDS011;2619;47.868;11.892;2023-06-22T02:13:59;16.73;;;12.03;;
5199;SDS011;2619;47.868;11.892;2023-06-22T02:16:25;17.83;;;13.50;;
5199;SDS011;2619;47.868;11.892;2023-06-22T02:18:54;18.93;;;12.20;;
5199;SDS011;2619;47.868;11.892;2023-06-22T02:21:21;17.67;;;13.00;;
5199;SDS011;2619;47.868;11.892;2023-06-22T02:23:47;17.73;;;12.83;;
5199;SDS011;2619;47.868;11.892;2023-06-22T02:26:13;16.60;;;12.63;;
5199;SDS011;2619;47.868;11.892;2023-06-22T02:28:38;16.83;;;13.23;;
5199;SDS011;2619;47.868;11.892;2023-06-22T02:31:04;16.47;;;11.63;;
5199;SDS011;2619;47.868;11.892;2023-06-22T02:33:30;17.87;;;12.83;;
5199;SDS011;2619;47.868;11.892;2023-06-22T02:35:55;18.40;;;14.43;;
5199;SDS011;2619;47.868;11.892;2023-06-22T02:38:21;19.83;;;14.37;;
5199;SDS011;2619;47.868;11.892;2023-06-22T02:40:49;21.77;;;13.63;;
5199;SDS011;2619;47.868;11.892;2023-06-22T02:43:15;17.13;;;13.00;;
5199;SDS011;2619;47.868;11.892;2023-06-22T02:45:40;17.73;;;12.40;;
5199;SDS011;2619;47.868;11.892;2023-06-22T02:48:06;20.97;;;13.27;;
5199;SDS011;2619;47.868;11.892;2023-06-22T02:50:32;18.03;;;12.57;;
5199;SDS011;2619;47.868;11.892;2023-06-22T02:52:57;17.50;;;12.80;;
5199;SDS011;2619;47.868;11.892;2023-06-22T02:55:23;17.40;;;12.60;;
5199;SDS011;2619;47.868;11.892;2023-06-22T02:57:48;14.40;;;11.80;;
5199;SDS011;2619;47.868;11.892;2023-06-22T03:00:17;17.33;;;12.17;;
5199;SDS011;2619;47.868;11.892;2023-06-22T03:02:44;19.23;;;11.80;;
5199;SDS011;2619;47.868;11.892;2023-06-22T03:05:11;18.80;;;13.23;;
5199;SDS011;2619;47.868;11.892;2023-06-22T03:07:43;17.20;;;12.40;;
5199;SDS011;2619;47.868;11.892;2023-06-22T03:10:10;14.93;;;12.23;;
5199;SDS011;2619;47.868;11.892;2023-06-22T03:12:39;19.63;;;12.50;;
5199;SDS011;2619;47.868;11.892;2023-06-22T03:15:06;17.33;;;13.03;;
5199;SDS011;2619;47.868;11.892;2023-06-22T03:17:33;20.23;;;12.60;;
5199;SDS011;2619;47.868;11.892;2023-06-22T03:20:00;19.87;;;11.90;;
5199;SDS011;2619;47.868;11.892;2023-06-22T03:22:26;16.23;;;11.27;;
5199;SDS011;2619;47.868;11.892;2023-06-22T03:24:51;17.20;;;11.53;;
5199;SDS011;2619;47.868;11.892;2023-06-22T03:27:17;15.03;;;10.40;;
5199;SDS011;2619;47.868;11.892;2023-06-22T03:29:43;10.80;;;9.20;;
5199;SDS011;2619;47.868;11.892;2023-06-22T03:32:09;12.80;;;9.70;;
5199;SDS011;2619;47.868;11.892;2023-06-22T03:34:35;18.67;;;10.77;;
5199;SDS011;2619;47.868;11.892;2023-06-22T03:37:01;19.03;;;12.20;;
5199;SDS011;2619;47.868;11.892;2023-06-22T03:39:26;19.50;;;11.80;;
5199;SDS011;2619;47.868;11.892;2023-06-22T03:41:52;16.00;;;11.13;;
5199;SDS011;2619;47.868;11.892;2023-06-22T03:44:18;17.40;;;11.87;;
5199;SDS011;2619;47.868;11.892;2023-06-22T03:46:43;16.63;;;11.53;;
5199;SDS011;2619;47.868;11.892;2023-06-22T03:49:09;17.17;;;10.23;;
5199;SDS011;2619;47.868;11.892;2023-06-22T03:51:34;15.50;;;11.07;;
5199;SDS011;2619;47.868;11.892;2023-06-22T03:54:00;15.13;;;11.30;;
5199;SDS011;2619;47.868;11.892;2023-06-22T03:56:25;16.53;;;11.83;;
5199;SDS011;2619;47.868;11.892;2023-06-22T03:58:51;17.27;;;11.70;;
5199;SDS011;2619;47.868;11.892;2023-06-22T04:01:17;15.10;;;12.00;;
5199;SDS011;2619;47.868;11.892;2023-06-22T04:03:42;20.03;;;11.70;;
5199;SDS011;2619;47.868;11.892;2023-06-22T04:06:08;17.63;;;13.47;;
5199;SDS011;2619;47.868;11.892;2023-06-22T04:08:34;18.57;;;12.20;;
5199;SDS011;2619;47.868;11.892;2023-06-22T04:11:00;19.67;;;12.97;;
5199;SDS011;2619;47.868;11.892;2023-06-22T04:13:25;15.00;;;12.17;;
5199;SDS011;2619;47.868;11.892;2023-06-22T04:15:51;18.00;;;13.33;;
5199;SDS011;2619;47.868;11.892;2023-06-22T04:18:16;18.10;;;13.20;;
5199;SDS011;2619;47.868;11.892;2023-06-22T04:20:42;17.10;;;13.40;;
5199;SDS011;2619;47.868;11.892;2023-06-22T04:23:09;21.10;;;14.30;;
5199;SDS011;2619;47.868;11.892;2023-06-22T04:25:35;15.53;;;13.50;;
5199;SDS011;2619;47.868;11.892;2023-06-22T04:31:22;15.80;;;11.93;;
5199;SDS011;2619;47.868;11.892;2023-06-22T04:33:52;16.80;;;13.00;;
5199;SDS011;2619;47.868;11.892;2023-06-22T04:36:18;20.23;;;15.27;;
5199;SDS011;2619;47.868;11.892;2023-06-22T04:38:43;13.60;;;8.40;;
5199;SDS011;2619;47.868;11.892;2023-06-22T04:41:09;12.17;;;9.00;;
5199;SDS011;2619;47.868;11.892;2023-06-22T04:43:39;15.90;;;9.77;;
5199;SDS011;2619;47.868;11.892;2023-06-22T04:46:04;13.23;;;8.97;;
5199;SDS011;2619;47.868;11.892;2023-06-22T04:48:30;11.67;;;9.40;;
5199;SDS011;2619;47.868;11.892;2023-06-22T04:50:58;12.47;;;10.20;;
5199;SDS011;2619;47.868;11.892;2023-06-22T04:53:28;13.80;;;9.33;;
5199;SDS011;2619;47.868;11.892;2023-06-22T04:55:54;15.10;;;9.27;;
5199;SDS011;2619;47.868;11.892;2023-06-22T04:58:20;13.20;;;10.00;;
5199;SDS011;2619;47.868;11.892;2023-06-22T05:00:46;12.53;;;9.10;;
5199;SDS011;2619;47.868;11.892;2023-06-22T05:03:12;13.67;;;9.70;;
5199;SDS011;2619;47.868;11.892;2023-06-22T05:05:38;13.07;;;9.30;;
5199;SDS011;2619;47.868;11.892;2023-06-22T05:08:04;13.73;;;9.20;;
5199;SDS011;2619;47.868;11.892;2023-06-22T05:10:31;12.43;;;9.47;;
5199;SDS011;2619;47.868;11.892;2023-06-22T05:12:57;15.20;;;9.80;;
5199;SDS011;2619;47.868;11.892;2023-06-22T05:15:23;13.70;;;9.37;;
5199;SDS011;2619;47.868;11.892;2023-06-22T05:17:53;11.30;;;9.10;;
5199;SDS011;2619;47.868;11.892;2023-06-22T05:20:18;19.37;;;9.87;;
5199;SDS011;2619;47.868;11.892;2023-06-22T05:22:44;14.00;;;10.37;;
5199;SDS011;2619;47.868;11.892;2023-06-22T05:25:10;17.53;;;11.83;;
5199;SDS011;2619;47.868;11.892;2023-06-22T05:27:36;12.30;;;9.57;;
5199;SDS011;2619;47.868;11.892;2023-06-22T05:30:05;11.13;;;8.97;;
5199;SDS011;2619;47.868;11.892;2023-06-22T05:32:32;14.07;;;10.73;;
5199;SDS011;2619;47.868;11.892;2023-06-22T05:34:58;12.60;;;8.73;;
5199;SDS011;2619;47.868;11.892;2023-06-22T05:37:24;11.40;;;9.00;;
5199;SDS011;2619;47.868;11.892;2023-06-22T05:39:50;17.67;;;9.23;;
5199;SDS011;2619;47.868;11.892;2023-06-22T05:42:15;11.40;;;10.20;;
5199;SDS011;2619;47.868;11.892;2023-06-22T05:44:41;12.87;;;9.30;;
5199;SDS011;2619;47.868;11.892;2023-06-22T05:47:06;11.50;;;9.67;;
5199;SDS011;2619;47.868;11.892;2023-06-22T05:49:32;18.70;;;10.77;;
5199;SDS011;2619;47.868;11.892;2023-06-22T05:51:58;15.10;;;10.50;;
5199;SDS011;2619;47.868;11.892;2023-06-22T05:54:24;12.50;;;10.03;;
5199;SDS011;2619;47.868;11.892;2023-06-22T05:56:50;14.53;;;11.17;;
5199;SDS011;2619;47.868;11.892;2023-06-22T05:59:16;13.03;;;10.93;;
5199;SDS011;2619;47.868;11.892;2023-06-22T06:01:42;20.87;;;10.30;;
5199;SDS011;2619;47.868;11.892;2023-06-22T06:04:07;14.63;;;10.43;;
5199;SDS011;2619;47.868;11.892;2023-06-22T06:06:33;17.30;;;10.07;;
5199;SDS011;2619;47.868;11.892;2023-06-22T06:09:02;13.00;;;9.47;;
5199;SDS011;2619;47.868;11.892;2023-06-22T06:11:28;15.10;;;10.87;;
5199;SDS011;2619;47.868;11.892;2023-06-22T06:13:54;15.50;;;10.33;;
5199;SDS011;2619;47.868;11.892;2023-06-22T06:16:20;14.30;;;10.60;;
5199;SDS011;2619;47.868;11.892;2023-06-22T06:18:45;10.17;;;8.73;;
5199;SDS011;2619;47.868;11.892;2023-06-22T06:21:11;12.80;;;9.43;;
5199;SDS011;2619;47.868;11.892;2023-06-22T06:23:36;13.53;;;10.77;;
5199;SDS011;2619;47.868;11.892;2023-06-22T06:26:02;11.63;;;9.00;;
5199;SDS011;2619;47.868;11.892;2023-06-22T06:28:32;17.53;;;9.83;;
5199;SDS011;2619;47.868;11.892;2023-06-22T06:30:58;12.20;;;9.30;;
5199;SDS011;2619;47.868;11.892;2023-06-22T06:33:24;12.30;;;9.53;;
5199;SDS011;2619;47.868;11.892;2023-06-22T06:35:49;14.60;;;9.60;;
5199;SDS011;2619;47.868;11.892;2023-06-22T06:38:15;14.97;;;10.40;;
5199;SDS011;2619;47.868;11.892;2023-06-22T06:40:41;12.20;;;8.90;;
5199;SDS011;2619;47.868;11.892;2023-06-22T06:43:06;15.57;;;10.50;;
5199;SDS011;2619;47.868;11.892;2023-06-22T06:45:32;20.77;;;11.70;;
5199;SDS011;2619;47.868;11.892;2023-06-22T06:47:59;11.97;;;10.17;;
5199;SDS011;2619;47.868;11.892;2023-06-22T06:50:25;13.83;;;10.10;;
5199;SDS011;2619;47.868;11.892;2023-06-22T06:52:51;12.50;;;8.90;;
5199;SDS011;2619;47.868;11.892;2023-06-22T06:55:16;11.73;;;10.40;;
5199;SDS011;2619;47.868;11.892;2023-06-22T06:57:43;10.77;;;8.90;;
5199;SDS011;2619;47.868;11.892;2023-06-22T07:00:09;11.33;;;9.10;;
5199;SDS011;2619;47.868;11.892;2023-06-22T07:02:38;13.63;;;9.70;;
5199;SDS011;2619;47.868;11.892;2023-06-22T07:05:08;14.17;;;10.67;;
5199;SDS011;2619;47.868;11.892;2023-06-22T07:07:34;13.60;;;10.30;;
5199;SDS011;2619;47.868;11.892;2023-06-22T07:10:00;18.70;;;10.60;;
5199;SDS011;2619;47.868;11.892;2023-06-22T07:12:26;13.93;;;10.57;;
5199;SDS011;2619;47.868;11.892;2023-06-22T07:14:52;14.63;;;11.03;;
5199;SDS011;2619;47.868;11.892;2023-06-22T07:17:18;15.30;;;10.60;;
5199;SDS011;2619;47.868;11.892;2023-06-22T07:19:43;17.17;;;10.50;;
5199;SDS011;2619;47.868;11.892;2023-06-22T07:22:09;14.80;;;10.70;;
5199;SDS011;2619;47.868;11.892;2023-06-22T07:24:34;13.47;;;9.87;;
5199;SDS011;2619;47.868;11.892;2023-06-22T07:27:00;16.43;;;10.37;;
5199;SDS011;2619;47.868;11.892;2023-06-22T07:29:27;10.43;;;8.70;;
5199;SDS011;2619;47.868;11.892;2023-06-22T07:31:52;13.50;;;10.13;;
5199;SDS011;2619;47.868;11.892;2023-06-22T07:34:19;11.67;;;9.17;;
5199;SDS011;2619;47.868;11.892;2023-06-22T07:36:44;13.93;;;9.87;;
5199;SDS011;2619;47.868;11.892;2023-06-22T07:39:11;11.97;;;9.97;;
5199;SDS011;2619;47.868;11.892;2023-06-22T07:41:37;12.37;;;9.43;;
5199;SDS011;2619;47.868;11.892;2023-06-22T07:44:04;13.10;;;10.40;;
5199;SDS011;2619;47.868;11.892;2023-06-22T07:46:31;13.63;;;9.97;;
5199;SDS011;2619;47.868;11.892;2023-06-22T07:48:57;12.53;;;10.10;;
5199;SDS011;2619;47.868;11.892;2023-06-22T07:51:23;13.13;;;10.70;;
5199;SDS011;2619;47.868;11.892;2023-06-22T07:53:49;14.93;;;9.37;;
5199;SDS011;2619;47.868;11.892;2023-06-22T07:56:14;15.60;;;10.40;;
5199;SDS011;2619;47.868;11.892;2023-06-22T07:58:44;13.07;;;9.50;;
5199;SDS011;2619;47.868;11.892;2023-06-22T08:01:11;15.07;;;10.23;;
5199;SDS011;2619;47.868;11.892;2023-06-22T08:03:36;17.37;;;9.20;;
5199;SDS011;2619;47.868;11.892;2023-06-22T08:06:02;15.00;;;10.00;;
5199;SDS011;2619;47.868;11.892;2023-06-22T08:08:28;14.40;;;10.10;;
5199;SDS011;2619;47.868;11.892;2023-06-22T08:10:54;12.63;;;9.37;;
5199;SDS011;2619;47.868;11.892;2023-06-22T08:13:19;16.60;;;9.17;;
5199;SDS011;2619;47.868;11.892;2023-06-22T08:15:45;12.10;;;9.07;;
5199;SDS011;2619;47.868;11.892;2023-06-22T08:18:10;16.83;;;11.00;;
5199;SDS011;2619;47.868;11.892;2023-06-22T08:20:36;13.10;;;8.93;;
5199;SDS011;2619;47.868;11.892;2023-06-22T08:23:02;15.40;;;9.27;;
5199;SDS011;2619;47.868;11.892;2023-06-22T08:25:30;16.80;;;10.47;;
5199;SDS011;2619;47.868;11.892;2023-06-22T08:27:56;13.47;;;10.80;;
5199;SDS011;2619;47.868;11.892;2023-06-22T08:30:21;11.63;;;10.47;;
5199;SDS011;2619;47.868;11.892;2023-06-22T08:32:47;15.30;;;10.40;;
5199;SDS011;2619;47.868;11.892;2023-06-22T08:35:13;12.40;;;10.17;;
5199;SDS011;2619;47.868;11.892;2023-06-22T08:37:38;14.70;;;9.40;;
5199;SDS011;2619;47.868;11.892;2023-06-22T08:40:05;13.80;;;10.07;;
5199;SDS011;2619;47.868;11.892;2023-06-22T08:42:35;13.13;;;9.77;;
5199;SDS011;2619;47.868;11.892;2023-06-22T08:45:02;12.00;;;9.10;;
5199;SDS011;2619;47.868;11.892;2023-06-22T08:47:28;15.80;;;10.30;;
5199;SDS011;2619;47.868;11.892;2023-06-22T08:49:53;16.20;;;10.00;;
5199;SDS011;2619;47.868;11.892;2023-06-22T08:52:19;12.57;;;9.20;;
5199;SDS011;2619;47.868;11.892;2023-06-22T08:54:45;17.10;;;9.10;;
5199;SDS011;2619;47.868;11.892;2023-06-22T08:57:12;14.03;;;9.63;;
5199;SDS011;2619;47.868;11.892;2023-06-22T08:59:37;15.33;;;9.23;;
5199;SDS011;2619;47.868;11.892;2023-06-22T09:02:03;13.40;;;9.00;;
5199;SDS011;2619;47.868;11.892;2023-06-22T09:04:29;12.60;;;9.97;;
5199;SDS011;2619;47.868;11.892;2023-06-22T09:06:55;14.70;;;9.17;;
5199;SDS011;2619;47.868;11.892;2023-06-22T09:09:21;13.67;;;9.27;;
5199;SDS011;2619;47.868;11.892;2023-06-22T09:11:46;11.90;;;9.37;;
5199;SDS011;2619;47.868;11.892;2023-06-22T09:14:12;13.60;;;9.37;;
5199;SDS011;2619;47.868;11.892;2023-06-22T09:16:38;15.80;;;9.50;;
5199;SDS011;2619;47.868;11.892;2023-06-22T09:19:03;11.83;;;8.97;;
5199;SDS011;2619;47.868;11.892;2023-06-22T09:21:29;11.77;;;8.80;;
5199;SDS011;2619;47.868;11.892;2023-06-22T09:23:55;11.20;;;8.50;;
5199;SDS011;2619;47.868;11.892;2023-06-22T09:26:21;12.47;;;8.97;;
5199;SDS011;2619;47.868;11.892;2023-06-22T09:28:48;14.10;;;9.30;;
5199;SDS011;2619;47.868;11.892;2023-06-22T09:31:14;13.90;;;8.70;;
5199;SDS011;2619;47.868;11.892;2023-06-22T09:33:41;10.43;;;9.33;;
5199;SDS011;2619;47.868;11.892;2023-06-22T09:36:07;14.17;;;10.60;;
5199;SDS011;2619;47.868;11.892;2023-06-22T09:38:38;11.63;;;8.93;;
5199;SDS011;2619;47.868;11.892;2023-06-22T09:41:04;14.07;;;9.37;;
5199;SDS011;2619;47.868;11.892;2023-06-22T09:43:31;12.33;;;9.97;;
5199;SDS011;2619;47.868;11.892;2023-06-22T09:45:59;15.90;;;10.03;;
5199;SDS011;2619;47.868;11.892;2023-06-22T09:48:26;13.13;;;9.23;;
5199;SDS011;2619;47.868;11.892;2023-06-22T09:50:52;14.50;;;10.33;;
5199;SDS011;2619;47.868;11.892;2023-06-22T09:53:17;12.40;;;9.43;;
5199;SDS011;2619;47.868;11.892;2023-06-22T09:55:43;13.67;;;8.87;;
5199;SDS011;2619;47.868;11.892;2023-06-22T09:58:08;13.23;;;10.67;;
5199;SDS011;2619;47.868;11.892;2023-06-22T10:00:35;11.67;;;8.83;;
5199;SDS011;2619;47.868;11.892;2023-06-22T10:03:00;12.03;;;8.83;;
5199;SDS011;2619;47.868;11.892;2023-06-22T10:05:26;14.80;;;10.00;;
5199;SDS011;2619;47.868;11.892;2023-06-22T10:07:51;15.27;;;9.87;;
5199;SDS011;2619;47.868;11.892;2023-06-22T10:10:17;13.40;;;9.37;;
5199;SDS011;2619;47.868;11.892;2023-06-22T10:12:45;13.03;;;8.83;;
5199;SDS011;2619;47.868;11.892;2023-06-22T10:15:12;12.37;;;9.73;;
5199;SDS011;2619;47.868;11.892;2023-06-22T10:17:38;12.90;;;9.90;;
5199;SDS011;2619;47.868;11.892;2023-06-22T10:20:05;16.87;;;9.67;;
5199;SDS011;2619;47.868;11.892;2023-06-22T10:22:41;11.17;;;9.90;;
5199;SDS011;2619;47.868;11.892;2023-06-22T10:25:08;13.13;;;9.37;;
5199;SDS011;2619;47.868;11.892;2023-06-22T10:27:35;14.27;;;10.17;;
5199;SDS011;2619;47.868;11.892;2023-06-22T10:30:01;10.67;;;9.50;;
5199;SDS011;2619;47.868;11.892;2023-06-22T10:32:26;16.87;;;10.57;;
5199;SDS011;2619;47.868;11.892;2023-06-22T10:34:53;16.73;;;9.87;;
5199;SDS011;2619;47.868;11.892;2023-06-22T10:37:19;12.93;;;9.77;;
5199;SDS011;2619;47.868;11.892;2023-06-22T10:39:45;15.50;;;10.17;;
5199;SDS011;2619;47.868;11.892;2023-06-22T10:42:11;16.40;;;11.43;;
5199;SDS011;2619;47.868;11.892;2023-06-22T10:44:37;14.53;;;10.10;;
5199;SDS011;2619;47.868;11.892;2023-06-22T10:47:05;15.33;;;9.23;;
5199;SDS011;2619;47.868;11.892;2023-06-22T10:49:31;16.00;;;9.40;;
5199;SDS011;2619;47.868;11.892;2023-06-22T10:51:57;15.47;;;9.93;;
5199;SDS011;2619;47.868;11.892;2023-06-22T10:54:22;14.73;;;9.40;;
5199;SDS011;2619;47.868;11.892;2023-06-22T10:56:48;13.67;;;9.47;;
5199;SDS011;2619;47.868;11.892;2023-06-22T10:59:14;13.80;;;10.37;;
5199;SDS011;2619;47.868;11.892;2023-06-22T11:01:39;18.43;;;9.73;;
5199;SDS011;2619;47.868;11.892;2023-06-22T11:04:05;18.53;;;10.20;;
5199;SDS011;2619;47.868;11.892;2023-06-22T11:06:31;12.90;;;9.27;;
5199;SDS011;2619;47.868;11.892;2023-06-22T11:08:56;16.43;;;9.37;;
5199;SDS011;2619;47.868;11.892;2023-06-22T11:11:23;13.10;;;8.97;;
5199;SDS011;2619;47.868;11.892;2023-06-22T11:13:50;13.77;;;9.70;;
5199;SDS011;2619;47.868;11.892;2023-06-22T11:16:16;12.73;;;8.93;;
5199;SDS011;2619;47.868;11.892;2023-06-22T11:18:41;13.87;;;9.43;;
5199;SDS011;2619;47.868;11.892;2023-06-22T11:21:07;14.40;;;9.10;;
5199;SDS011;2619;47.868;11.892;2023-06-22T11:23:32;10.37;;;8.83;;
5199;SDS011;2619;47.868;11.892;2023-06-22T11:25:58;13.50;;;9.30;;
5199;SDS011;2619;47.868;11.892;2023-06-22T11:28:23;17.77;;;9.10;;
5199;SDS011;2619;47.868;11.892;2023-06-22T11:30:49;15.03;;;8.50;;
5199;SDS011;2619;47.868;11.892;2023-06-22T11:33:14;13.70;;;8.57;;
5199;SDS011;2619;47.868;11.892;2023-06-22T11:35:40;10.40;;;8.50;;
5199;SDS011;2619;47.868;11.892;2023-06-22T11:38:05;12.00;;;8.30;;
5199;SDS011;2619;47.868;11.892;2023-06-22T11:40:32;12.60;;;8.40;;
5199;SDS011;2619;47.868;11.892;2023-06-22T11:42:58;11.30;;;9.40;;
5199;SDS011;2619;47.868;11.892;2023-06-22T11:45:23;12.87;;;8.37;;
5199;SDS011;2619;47.868;11.892;2023-06-22T11:47:49;12.97;;;8.67;;
5199;SDS011;2619;47.868;11.892;2023-06-22T11:50:14;11.97;;;8.67;;
5199;SDS011;2619;47.868;11.892;2023-06-22T11:52:40;10.67;;;8.17;;
5199;SDS011;2619;47.868;11.892;2023-06-22T11:55:06;11.93;;;7.70;;
5199;SDS011;2619;47.868;11.892;2023-06-22T11:57:33;12.57;;;7.90;;
5199;SDS011;2619;47.868;11.892;2023-06-22T12:00:00;12.90;;;7.90;;
5199;SDS011;2619;47.868;11.892;2023-06-22T12:02:25;14.53;;;8.27;;
5199;SDS011;2619;47.868;11.892;2023-06-22T12:04:51;15.37;;;8.63;;
5199;SDS011;2619;47.868;11.892;2023-06-22T12:07:17;13.20;;;8.70;;
5199;SDS011;2619;47.868;11.892;2023-06-22T12:09:43;19.43;;;8.27;;
5199;SDS011;2619;47.868;11.892;2023-06-22T12:12:09;11.23;;;7.60;;
5199;SDS011;2619;47.868;11.892;2023-06-22T12:14:35;16.13;;;8.53;;
5199;SDS011;2619;47.868;11.892;2023-06-22T12:17:00;10.93;;;8.10;;
5199;SDS011;2619;47.868;11.892;2023-06-22T12:19:26;12.67;;;7.73;;
5199;SDS011;2619;47.868;11.892;2023-06-22T12:21:52;14.67;;;8.40;;
5199;SDS011;2619;47.868;11.892;2023-06-22T12:24:17;10.10;;;8.00;;
5199;SDS011;2619;47.868;11.892;2023-06-22T12:26:43;13.23;;;8.00;;
5199;SDS011;2619;47.868;11.892;2023-06-22T12:29:09;11.33;;;7.40;;
5199;SDS011;2619;47.868;11.892;2023-06-22T12:31:35;13.40;;;6.63;;
5199;SDS011;2619;47.868;11.892;2023-06-22T12:34:03;12.20;;;8.33;;
5199;SDS011;2619;47.868;11.892;2023-06-22T12:36:29;13.07;;;7.90;;
5199;SDS011;2619;47.868;11.892;2023-06-22T12:38:55;12.77;;;8.03;;
5199;SDS011;2619;47.868;11.892;2023-06-22T12:41:20;13.17;;;8.60;;
5199;SDS011;2619;47.868;11.892;2023-06-22T12:43:46;14.20;;;7.80;;
5199;SDS011;2619;47.868;11.892;2023-06-22T12:46:11;18.43;;;7.83;;
5199;SDS011;2619;47.868;11.892;2023-06-22T12:48:37;11.73;;;7.40;;
5199;SDS011;2619;47.868;11.892;2023-06-22T12:51:07;13.40;;;7.60;;
5199;SDS011;2619;47.868;11.892;2023-06-22T12:53:33;10.80;;;8.10;;
5199;SDS011;2619;47.868;11.892;2023-06-22T12:55:59;18.80;;;7.63;;
5199;SDS011;2619;47.868;11.892;2023-06-22T12:58:24;13.53;;;6.73;;
5199;SDS011;2619;47.868;11.892;2023-06-22T13:00:50;14.97;;;8.13;;
5199;SDS011;2619;47.868;11.892;2023-06-22T13:03:15;14.23;;;8.20;;
5199;SDS011;2619;47.868;11.892;2023-06-22T13:05:41;13.70;;;8.50;;
5199;SDS011;2619;47.868;11.892;2023-06-22T13:08:07;16.60;;;7.10;;
5199;SDS011;2619;47.868;11.892;2023-06-22T13:10:33;15.10;;;7.30;;
5199;SDS011;2619;47.868;11.892;2023-06-22T13:12:59;12.17;;;7.37;;
5199;SDS011;2619;47.868;11.892;2023-06-22T13:15:28;13.80;;;7.30;;
5199;SDS011;2619;47.868;11.892;2023-06-22T13:17:55;13.83;;;7.60;;
5199;SDS011;2619;47.868;11.892;2023-06-22T13:20:20;11.73;;;6.57;;
5199;SDS011;2619;47.868;11.892;2023-06-22T13:22:46;13.00;;;7.50;;
5199;SDS011;2619;47.868;11.892;2023-06-22T13:25:12;14.13;;;7.13;;
5199;SDS011;2619;47.868;11.892;2023-06-22T13:27:41;14.20;;;7.40;;
5199;SDS011;2619;47.868;11.892;2023-06-22T13:30:07;12.10;;;7.13;;
5199;SDS011;2619;47.868;11.892;2023-06-22T13:32:33;12.23;;;6.43;;
5199;SDS011;2619;47.868;11.892;2023-06-22T13:34:59;10.53;;;6.57;;
5199;SDS011;2619;47.868;11.892;2023-06-22T13:37:25;11.80;;;7.40;;
5199;SDS011;2619;47.868;11.892;2023-06-22T13:39:51;12.40;;;7.13;;
5199;SDS011;2619;47.868;11.892;2023-06-22T13:42:17;10.97;;;7.30;;
5199;SDS011;2619;47.868;11.892;2023-06-22T13:44:43;13.57;;;7.07;;
5199;SDS011;2619;47.868;11.892;2023-06-22T13:47:08;16.27;;;7.30;;
5199;SDS011;2619;47.868;11.892;2023-06-22T13:49:34;13.07;;;7.03;;
5199;SDS011;2619;47.868;11.892;2023-06-22T13:52:00;14.13;;;7.50;;
5199;SDS011;2619;47.868;11.892;2023-06-22T13:54:25;11.30;;;6.80;;
5199;SDS011;2619;47.868;11.892;2023-06-22T13:56:51;12.10;;;7.53;;
5199;SDS011;2619;47.868;11.892;2023-06-22T13:59:17;10.47;;;7.20;;
5199;SDS011;2619;47.868;11.892;2023-06-22T14:01:42;10.40;;;5.90;;
5199;SDS011;2619;47.868;11.892;2023-06-22T14:04:08;12.67;;;7.20;;
5199;SDS011;2619;47.868;11.892;2023-06-22T14:06:34;11.83;;;7.50;;
5199;SDS011;2619;47.868;11.892;2023-06-22T14:09:00;13.43;;;7.40;;
5199;SDS011;2619;47.868;11.892;2023-06-22T14:11:26;14.00;;;6.57;;
5199;SDS011;2619;47.868;11.892;2023-06-22T14:13:51;11.80;;;7.13;;
5199;SDS011;2619;47.868;11.892;2023-06-22T14:16:17;11.63;;;6.93;;
5199;SDS011;2619;47.868;11.892;2023-06-22T14:18:44;10.93;;;6.37;;
5199;SDS011;2619;47.868;11.892;2023-06-22T14:21:10;13.23;;;8.03;;
5199;SDS011;2619;47.868;11.892;2023-06-22T14:23:36;9.93;;;6.33;;
5199;SDS011;2619;47.868;11.892;2023-06-22T14:26:02;10.97;;;6.47;;
5199;SDS011;2619;47.868;11.892;2023-06-22T14:28:28;14.53;;;7.53;;
5199;SDS011;2619;47.868;11.892;2023-06-22T14:30:54;8.80;;;6.07;;
5199;SDS011;2619;47.868;11.892;2023-06-22T14:33:19;11.40;;;6.60;;
5199;SDS011;2619;47.868;11.892;2023-06-22T14:35:45;11.17;;;6.10;;
5199;SDS011;2619;47.868;11.892;2023-06-22T14:38:10;14.60;;;7.57;;
5199;SDS011;2619;47.868;11.892;2023-06-22T14:40:36;11.13;;;6.70;;
5199;SDS011;2619;47.868;11.892;2023-06-22T14:43:01;13.43;;;7.40;;
5199;SDS011;2619;47.868;11.892;2023-06-22T14:45:27;12.23;;;7.50;;
5199;SDS011;2619;47.868;11.892;2023-06-22T14:47:52;12.87;;;6.73;;